createdAt,value
2019-03-02T00:00:30.791Z,6.30
2019-03-02T00:01:30.778Z,6.24
2019-03-02T00:02:30.766Z,6.30
2019-03-02T00:03:31.767Z,6.28
2019-03-02T00:04:30.756Z,6.31
2019-03-02T00:05:30.747Z,6.38
2019-03-02T00:06:32.744Z,6.30
2019-03-02T00:07:30.709Z,6.26
2019-03-02T00:08:30.694Z,6.26
2019-03-02T00:09:31.801Z,6.28
2019-03-02T00:10:30.674Z,6.31
2019-03-02T00:11:30.667Z,6.35
2019-03-02T00:12:32.107Z,6.31
2019-03-02T00:13:30.634Z,6.30
2019-03-02T00:14:30.622Z,6.19
2019-03-02T00:15:31.894Z,6.19
2019-03-02T00:16:30.598Z,6.20
2019-03-02T00:17:30.586Z,6.20
2019-03-02T00:18:30.576Z,6.22
2019-03-02T00:19:30.561Z,6.26
2019-03-02T00:20:30.549Z,6.24
2019-03-02T00:21:31.384Z,6.17
2019-03-02T00:22:30.524Z,6.22
2019-03-02T00:23:30.512Z,6.28
2019-03-02T00:24:30.501Z,6.35
2019-03-02T00:25:30.772Z,6.35
2019-03-02T00:26:30.476Z,6.27
2019-03-02T00:27:30.464Z,6.22
2019-03-02T00:28:32.676Z,6.30
2019-03-02T00:29:30.441Z,6.30
2019-03-02T00:30:30.427Z,6.33
2019-03-02T00:31:33.296Z,6.33
2019-03-02T00:32:30.403Z,6.38
2019-03-02T00:33:30.391Z,6.33
2019-03-02T00:34:32.015Z,6.26
2019-03-02T00:35:30.367Z,6.28
2019-03-02T00:36:30.355Z,6.38
2019-03-02T00:37:32.838Z,6.31
2019-03-02T00:38:30.331Z,6.28
2019-03-02T00:39:30.319Z,6.24
2019-03-02T00:40:31.457Z,6.26
2019-03-02T00:41:30.295Z,6.27
2019-03-02T00:42:30.282Z,6.31
2019-03-02T00:43:30.271Z,6.28
2019-03-02T00:44:30.258Z,6.28
2019-03-02T00:45:30.246Z,6.27
2019-03-02T00:46:30.250Z,6.31
2019-03-02T00:47:31.788Z,6.30
2019-03-02T00:48:30.212Z,6.33
2019-03-02T00:49:30.198Z,6.31
2019-03-02T00:50:30.185Z,6.27
2019-03-02T00:51:30.173Z,6.27
2019-03-02T00:52:30.184Z,6.28
2019-03-02T00:53:31.947Z,6.36
2019-03-02T00:54:30.138Z,6.30
2019-03-02T00:55:31.831Z,6.33
2019-03-02T00:56:30.118Z,6.36
2019-03-02T00:57:30.102Z,6.26
2019-03-02T00:58:30.089Z,6.36
2019-03-02T00:59:30.077Z,6.28
2019-03-02T01:00:30.065Z,6.36
2019-03-02T01:01:30.054Z,6.33
2019-03-02T01:02:30.040Z,6.24
2019-03-02T01:03:30.033Z,6.16
2019-03-02T01:04:30.017Z,6.28
2019-03-02T01:05:30.005Z,6.22
2019-03-02T01:06:29.992Z,6.26
2019-03-02T01:07:29.981Z,6.19
2019-03-02T01:08:31.830Z,6.28
2019-03-02T01:09:29.957Z,6.26
2019-03-02T01:10:29.944Z,6.27
2019-03-02T01:11:32.928Z,6.26
2019-03-02T01:12:29.925Z,6.35
2019-03-02T01:13:29.908Z,6.28
2019-03-02T01:14:31.889Z,6.22
2019-03-02T01:15:29.884Z,6.11
2019-03-02T01:16:29.922Z,6.26
2019-03-02T01:17:30.753Z,6.26
2019-03-02T01:18:29.847Z,6.22
2019-03-02T01:19:29.836Z,6.27
2019-03-02T01:20:29.975Z,6.24
2019-03-02T01:21:29.813Z,6.19
2019-03-02T01:22:29.799Z,6.16
2019-03-02T01:23:29.790Z,6.14
2019-03-02T01:24:29.775Z,6.05
2019-03-02T01:25:29.764Z,6.04
2019-03-02T01:26:29.750Z,6.11
2019-03-02T01:27:31.728Z,6.08
2019-03-02T01:28:29.727Z,6.05
2019-03-02T01:29:29.719Z,6.04
2019-03-02T01:30:30.858Z,5.99
2019-03-02T01:31:29.690Z,5.98
2019-03-02T01:32:29.678Z,6.02
2019-03-02T01:33:29.666Z,6.08
2019-03-02T01:34:29.653Z,6.11
2019-03-02T01:35:29.641Z,6.12
2019-03-02T01:36:32.243Z,6.17
2019-03-02T01:37:29.617Z,6.12
2019-03-02T01:38:29.606Z,6.09
2019-03-02T01:39:30.158Z,6.05
2019-03-02T01:40:29.580Z,5.99
2019-03-02T01:41:29.569Z,5.94
2019-03-02T01:42:30.761Z,5.91
2019-03-02T01:43:29.544Z,5.93
2019-03-02T01:44:29.534Z,6.05
2019-03-02T01:45:29.520Z,6.04
2019-03-02T01:46:29.507Z,6.01
2019-03-02T01:47:29.495Z,5.98
2019-03-02T01:48:29.483Z,5.93
2019-03-02T01:49:29.471Z,5.91
2019-03-02T01:50:29.458Z,5.99
2019-03-02T01:51:29.447Z,6.01
2019-03-02T01:52:30.601Z,5.97
2019-03-02T01:53:29.423Z,6.04
2019-03-02T01:54:29.410Z,6.07
2019-03-02T01:55:31.259Z,6.09
2019-03-02T01:56:29.429Z,5.97
2019-03-02T01:57:29.374Z,5.99
2019-03-02T01:58:29.362Z,6.16
2019-03-02T01:59:29.349Z,6.11
2019-03-02T02:00:29.338Z,6.01
2019-03-02T02:01:29.326Z,6.11
2019-03-02T02:02:32.703Z,6.08
2019-03-02T02:03:29.301Z,6.12
2019-03-02T02:04:29.290Z,6.02
2019-03-02T02:05:32.076Z,6.01
2019-03-02T02:06:29.265Z,5.89
2019-03-02T02:07:29.254Z,5.94
2019-03-02T02:08:29.850Z,5.94
2019-03-02T02:09:29.230Z,6.02
2019-03-02T02:10:29.217Z,6.01
2019-03-02T02:11:29.205Z,6.04
2019-03-02T02:12:29.694Z,6.07
2019-03-02T02:13:29.182Z,6.22
2019-03-02T02:14:29.169Z,6.12
2019-03-02T02:15:30.280Z,6.26
2019-03-02T02:16:29.146Z,6.24
2019-03-02T02:17:29.184Z,6.19
2019-03-02T02:18:29.123Z,6.30
2019-03-02T02:19:29.109Z,6.19
2019-03-02T02:20:29.097Z,6.17
2019-03-02T02:21:29.086Z,6.20
2019-03-02T02:22:29.074Z,6.14
2019-03-02T02:23:29.062Z,6.26
2019-03-02T02:24:29.051Z,6.19
2019-03-02T02:25:29.039Z,6.19
2019-03-02T02:26:29.029Z,6.24
2019-03-02T02:27:29.016Z,6.20
2019-03-02T02:28:31.955Z,6.14
2019-03-02T02:29:28.993Z,6.12
2019-03-02T02:30:28.981Z,6.16
2019-03-02T02:31:28.973Z,6.09
2019-03-02T02:32:28.957Z,6.12
2019-03-02T02:33:28.946Z,6.16
2019-03-02T02:34:28.935Z,6.24
2019-03-02T02:35:28.926Z,6.28
2019-03-02T02:36:28.914Z,6.20
2019-03-02T02:37:32.353Z,6.19
2019-03-02T02:38:28.887Z,6.20
2019-03-02T02:39:33.142Z,6.16
2019-03-02T02:40:28.870Z,6.12
2019-03-02T02:41:28.862Z,6.17
2019-03-02T02:42:28.847Z,6.16
2019-03-02T02:43:28.829Z,6.16
2019-03-02T02:44:33.261Z,6.12
2019-03-02T02:45:28.806Z,6.16
2019-03-02T02:46:32.751Z,6.19
2019-03-02T02:47:28.785Z,6.12
2019-03-02T02:48:31.193Z,6.19
2019-03-02T02:49:28.758Z,6.16
2019-03-02T02:50:31.079Z,6.24
2019-03-02T02:51:28.735Z,6.24
2019-03-02T02:52:29.517Z,6.20
2019-03-02T02:53:28.712Z,6.26
2019-03-02T02:54:28.700Z,6.26
2019-03-02T02:55:28.690Z,6.31
2019-03-02T02:56:28.678Z,6.19
2019-03-02T02:57:33.620Z,6.26
2019-03-02T02:58:28.652Z,6.17
2019-03-02T02:59:28.641Z,6.12
2019-03-02T03:00:28.634Z,6.09
2019-03-02T03:01:32.966Z,6.08
2019-03-02T03:02:28.605Z,6.05
2019-03-02T03:03:28.601Z,6.11
2019-03-02T03:04:32.510Z,6.11
2019-03-02T03:05:28.572Z,6.07
2019-03-02T03:06:32.647Z,6.14
2019-03-02T03:07:28.549Z,6.12
2019-03-02T03:08:32.200Z,6.20
2019-03-02T03:09:28.525Z,6.11
2019-03-02T03:10:29.792Z,6.19
2019-03-02T03:11:28.501Z,6.11
2019-03-02T03:12:28.488Z,6.19
2019-03-02T03:13:28.488Z,6.14
2019-03-02T03:14:28.465Z,6.22
2019-03-02T03:15:35.957Z,6.24
2019-03-02T03:16:28.442Z,6.11
2019-03-02T03:17:32.461Z,6.12
2019-03-02T03:18:28.468Z,6.11
2019-03-02T03:19:31.122Z,6.07
2019-03-02T03:20:28.397Z,6.09
2019-03-02T03:21:29.610Z,6.17
2019-03-02T03:22:28.371Z,6.17
2019-03-02T03:23:28.361Z,6.16
2019-03-02T03:24:28.350Z,6.14
2019-03-02T03:25:28.338Z,6.19
2019-03-02T03:26:30.849Z,6.11
2019-03-02T03:27:28.314Z,6.14
2019-03-02T03:28:30.610Z,6.07
2019-03-02T03:29:28.291Z,6.14
2019-03-02T03:30:35.762Z,6.05
2019-03-02T03:31:31.685Z,6.12
2019-03-02T03:32:28.257Z,6.11
2019-03-02T03:33:41.459Z,6.11
2019-03-02T03:34:29.900Z,6.07
2019-03-02T03:35:28.222Z,6.09
2019-03-02T03:36:30.157Z,6.08
2019-03-02T03:37:28.198Z,6.11
2019-03-02T03:38:29.281Z,6.11
2019-03-02T03:39:28.174Z,6.08
2019-03-02T03:40:28.162Z,6.11
2019-03-02T03:41:28.151Z,6.09
2019-03-02T03:42:28.139Z,6.12
2019-03-02T03:43:28.132Z,6.05
2019-03-02T03:44:28.115Z,6.11
2019-03-02T03:45:28.834Z,6.20
2019-03-02T03:46:28.093Z,6.19
2019-03-02T03:47:28.080Z,6.17
2019-03-02T03:48:28.072Z,6.16
2019-03-02T03:49:30.114Z,6.19
2019-03-02T03:50:28.055Z,6.12
2019-03-02T03:51:30.510Z,6.16
2019-03-02T03:52:28.020Z,6.16
2019-03-02T03:53:30.784Z,6.07
2019-03-02T03:54:27.996Z,6.17
2019-03-02T03:55:27.985Z,6.08
2019-03-02T03:56:27.974Z,6.12
2019-03-02T03:57:27.962Z,6.08
2019-03-02T03:58:27.948Z,6.11
2019-03-02T03:59:27.941Z,6.11
2019-03-02T04:00:27.925Z,6.20
2019-03-02T04:01:27.933Z,6.11
2019-03-02T04:02:31.299Z,6.17
2019-03-02T04:03:27.887Z,6.17
2019-03-02T04:04:29.186Z,6.17
2019-03-02T04:05:27.865Z,6.17
2019-03-02T04:06:29.148Z,6.20
2019-03-02T04:07:27.839Z,6.19
2019-03-02T04:08:28.810Z,6.22
2019-03-02T04:09:27.818Z,6.31
2019-03-02T04:10:28.071Z,6.28
2019-03-02T04:11:27.791Z,6.28
2019-03-02T04:12:27.781Z,6.26
2019-03-02T04:13:27.767Z,6.33
2019-03-02T04:14:27.754Z,6.33
2019-03-02T04:15:27.744Z,6.22
2019-03-02T04:16:27.741Z,6.22
2019-03-02T04:17:27.720Z,6.27
2019-03-02T04:18:27.707Z,6.27
2019-03-02T04:19:29.601Z,6.38
2019-03-02T04:20:27.685Z,6.39
2019-03-02T04:21:29.588Z,6.42
2019-03-02T04:22:27.663Z,6.39
2019-03-02T04:23:27.647Z,6.42
2019-03-02T04:24:27.636Z,6.42
2019-03-02T04:25:27.624Z,6.35
2019-03-02T04:26:31.351Z,6.38
2019-03-02T04:27:27.600Z,6.39
2019-03-02T04:28:31.288Z,6.38
2019-03-02T04:29:27.576Z,6.42
2019-03-02T04:30:31.297Z,6.46
2019-03-02T04:31:27.551Z,6.42
2019-03-02T04:32:28.868Z,6.39
2019-03-02T04:33:27.527Z,6.42
2019-03-02T04:34:27.515Z,6.38
2019-03-02T04:35:30.040Z,6.38
2019-03-02T04:36:27.493Z,6.42
2019-03-02T04:37:27.482Z,6.42
2019-03-02T04:38:27.466Z,6.41
2019-03-02T04:39:27.456Z,6.44
2019-03-02T04:40:28.954Z,6.46
2019-03-02T04:41:27.432Z,6.49
2019-03-02T04:42:27.425Z,6.46
2019-03-02T04:43:27.406Z,6.54
2019-03-02T04:44:29.654Z,6.54
2019-03-02T04:45:27.382Z,6.48
2019-03-02T04:46:27.374Z,6.60
2019-03-02T04:47:27.616Z,6.44
2019-03-02T04:48:27.346Z,6.46
2019-03-02T04:49:27.335Z,6.48
2019-03-02T04:50:28.368Z,6.44
2019-03-02T04:51:27.310Z,6.52
2019-03-02T04:52:27.298Z,6.56
2019-03-02T04:53:27.287Z,6.46
2019-03-02T04:54:27.274Z,6.48
2019-03-02T04:55:27.263Z,6.54
2019-03-02T04:56:27.250Z,6.54
2019-03-02T04:57:29.166Z,6.48
2019-03-02T04:58:27.226Z,6.52
2019-03-02T04:59:27.214Z,6.62
2019-03-02T05:00:28.619Z,6.59
2019-03-02T05:01:27.191Z,6.51
2019-03-02T05:02:27.178Z,6.56
2019-03-02T05:03:27.166Z,6.56
2019-03-02T05:04:28.715Z,6.49
2019-03-02T05:05:27.143Z,6.56
2019-03-02T05:06:27.130Z,6.49
2019-03-02T05:07:30.245Z,6.57
2019-03-02T05:08:27.107Z,6.66
2019-03-02T05:09:27.096Z,6.60
2019-03-02T05:10:28.653Z,6.49
2019-03-02T05:11:27.071Z,6.63
2019-03-02T05:12:27.059Z,6.51
2019-03-02T05:13:28.291Z,6.57
2019-03-02T05:14:27.085Z,6.59
2019-03-02T05:15:27.034Z,6.72
2019-03-02T05:16:28.811Z,6.67
2019-03-02T05:17:26.999Z,6.64
2019-03-02T05:18:26.987Z,6.63
2019-03-02T05:19:29.112Z,6.63
2019-03-02T05:20:26.965Z,6.59
2019-03-02T05:21:26.952Z,6.59
2019-03-02T05:22:26.943Z,6.70
2019-03-02T05:23:27.601Z,6.64
2019-03-02T05:24:26.915Z,6.59
2019-03-02T05:25:26.904Z,6.63
2019-03-02T05:26:26.896Z,6.70
2019-03-02T05:27:28.841Z,6.72
2019-03-02T05:28:26.868Z,6.77
2019-03-02T05:29:26.857Z,6.74
2019-03-02T05:30:30.439Z,6.74
2019-03-02T05:31:26.835Z,6.72
2019-03-02T05:32:26.820Z,6.69
2019-03-02T05:33:28.865Z,6.66
2019-03-02T05:34:26.797Z,6.70
2019-03-02T05:35:26.790Z,6.60
2019-03-02T05:36:27.965Z,6.60
2019-03-02T05:37:26.763Z,6.64
2019-03-02T05:38:26.749Z,6.59
2019-03-02T05:39:26.738Z,6.64
2019-03-02T05:40:27.841Z,6.67
2019-03-02T05:41:26.717Z,6.69
2019-03-02T05:42:26.704Z,6.72
2019-03-02T05:43:27.115Z,6.70
2019-03-02T05:44:26.679Z,6.67
2019-03-02T05:45:26.671Z,6.67
2019-03-02T05:46:26.866Z,6.66
2019-03-02T05:47:26.644Z,6.75
2019-03-02T05:48:26.637Z,6.69
2019-03-02T05:49:26.620Z,6.74
2019-03-02T05:50:30.178Z,6.72
2019-03-02T05:51:26.596Z,6.75
2019-03-02T05:52:26.585Z,6.66
2019-03-02T05:53:29.811Z,6.74
2019-03-02T05:54:26.561Z,6.69
2019-03-02T05:55:26.550Z,6.70
2019-03-02T05:56:29.307Z,6.67
2019-03-02T05:57:26.527Z,6.69
2019-03-02T05:58:26.515Z,6.72
2019-03-02T05:59:27.649Z,6.70
2019-03-02T06:00:26.501Z,6.75
2019-03-02T06:01:26.480Z,6.72
2019-03-02T06:02:26.469Z,6.78
2019-03-02T06:03:26.457Z,6.77
2019-03-02T06:04:26.445Z,6.81
2019-03-02T06:05:26.740Z,6.66
2019-03-02T06:06:26.423Z,6.84
2019-03-02T06:07:26.410Z,6.82
2019-03-02T06:08:26.400Z,6.74
2019-03-02T06:09:26.387Z,6.77
2019-03-02T06:10:26.442Z,6.79
2019-03-02T06:11:26.363Z,6.81
2019-03-02T06:12:26.352Z,6.87
2019-03-02T06:13:28.397Z,6.78
2019-03-02T06:14:26.704Z,6.87
2019-03-02T06:15:26.316Z,6.81
2019-03-02T06:16:26.308Z,6.84
2019-03-02T06:17:26.293Z,6.79
2019-03-02T06:18:26.280Z,6.84
2019-03-02T06:19:26.269Z,6.88
2019-03-02T06:20:26.259Z,6.82
2019-03-02T06:21:26.245Z,6.93
2019-03-02T06:22:26.233Z,6.84
2019-03-02T06:23:26.635Z,6.92
2019-03-02T06:24:26.210Z,6.87
2019-03-02T06:25:26.199Z,6.89
2019-03-02T06:26:26.188Z,6.82
2019-03-02T06:27:26.175Z,6.82
2019-03-02T06:28:26.163Z,6.82
2019-03-02T06:29:29.379Z,6.88
2019-03-02T06:30:26.139Z,6.85
2019-03-02T06:31:26.128Z,6.93
2019-03-02T06:32:30.245Z,6.88
2019-03-02T06:33:26.104Z,6.92
2019-03-02T06:34:26.093Z,6.93
2019-03-02T06:35:29.128Z,6.96
2019-03-02T06:36:26.070Z,7.00
2019-03-02T06:37:26.057Z,7.03
2019-03-02T06:38:28.893Z,6.97
2019-03-02T06:39:26.032Z,7.00
2019-03-02T06:40:26.024Z,7.02
2019-03-02T06:41:26.010Z,7.06
2019-03-02T06:42:25.998Z,7.03
2019-03-02T06:43:25.986Z,6.95
2019-03-02T06:44:25.975Z,7.06
2019-03-02T06:45:25.965Z,6.93
2019-03-02T06:46:25.951Z,7.02
2019-03-02T06:47:25.940Z,7.02
2019-03-02T06:48:25.929Z,7.00
2019-03-02T06:49:25.917Z,7.02
2019-03-02T06:50:25.904Z,6.97
2019-03-02T06:51:25.896Z,7.02
2019-03-02T06:52:26.243Z,7.03
2019-03-02T06:53:25.870Z,7.00
2019-03-02T06:54:25.858Z,6.97
2019-03-02T06:55:25.846Z,7.10
2019-03-02T06:56:25.835Z,6.97
2019-03-02T06:57:25.823Z,7.02
2019-03-02T06:58:27.214Z,7.00
2019-03-02T06:59:25.799Z,7.03
2019-03-02T07:00:25.788Z,7.03
2019-03-02T07:01:26.059Z,7.10
2019-03-02T07:02:25.763Z,7.11
2019-03-02T07:03:25.752Z,7.20
2019-03-02T07:04:25.741Z,7.23
2019-03-02T07:05:25.730Z,7.18
2019-03-02T07:06:25.719Z,7.18
2019-03-02T07:07:25.707Z,7.20
2019-03-02T07:08:25.694Z,7.21
2019-03-02T07:09:25.684Z,7.21
2019-03-02T07:10:25.672Z,7.21
2019-03-02T07:11:25.660Z,7.20
2019-03-02T07:12:25.649Z,7.21
2019-03-02T07:13:25.637Z,7.23
2019-03-02T07:14:28.879Z,7.24
2019-03-02T07:15:25.614Z,7.24
2019-03-02T07:16:25.603Z,7.28
2019-03-02T07:17:27.599Z,7.21
2019-03-02T07:18:25.579Z,7.23
2019-03-02T07:19:25.568Z,7.23
2019-03-02T07:20:27.414Z,7.25
2019-03-02T07:21:25.546Z,7.31
2019-03-02T07:22:25.536Z,7.35
2019-03-02T07:23:27.684Z,7.32
2019-03-02T07:24:25.951Z,7.35
2019-03-02T07:25:25.503Z,7.38
2019-03-02T07:26:25.489Z,7.31
2019-03-02T07:27:26.444Z,7.25
2019-03-02T07:28:25.467Z,7.24
2019-03-02T07:29:25.458Z,7.24
2019-03-02T07:30:25.444Z,7.23
2019-03-02T07:31:25.433Z,7.24
2019-03-02T07:32:25.422Z,7.35
2019-03-02T07:33:25.411Z,7.28
2019-03-02T07:34:25.402Z,7.33
2019-03-02T07:35:25.389Z,7.25
2019-03-02T07:36:27.663Z,7.36
2019-03-02T07:37:25.366Z,7.35
2019-03-02T07:38:25.354Z,7.25
2019-03-02T07:39:28.810Z,7.25
2019-03-02T07:40:25.332Z,7.23
2019-03-02T07:41:25.321Z,7.33
2019-03-02T07:42:25.309Z,7.33
2019-03-02T07:43:25.298Z,7.32
2019-03-02T07:44:25.287Z,7.39
2019-03-02T07:45:27.054Z,7.31
2019-03-02T07:46:25.263Z,7.35
2019-03-02T07:47:25.253Z,7.36
2019-03-02T07:48:25.249Z,7.42
2019-03-02T07:49:25.231Z,7.48
2019-03-02T07:50:26.565Z,7.47
2019-03-02T07:51:25.208Z,7.56
2019-03-02T07:52:25.197Z,7.56
2019-03-02T07:53:29.034Z,7.48
2019-03-02T07:54:25.182Z,7.53
2019-03-02T07:55:25.163Z,7.54
2019-03-02T07:56:25.153Z,7.51
2019-03-02T07:57:25.143Z,7.54
2019-03-02T07:58:25.131Z,7.66
2019-03-02T07:59:26.544Z,7.69
2019-03-02T08:00:25.108Z,7.50
2019-03-02T08:01:25.097Z,7.54
2019-03-02T08:02:25.856Z,7.58
2019-03-02T08:03:25.664Z,7.58
2019-03-02T08:04:25.064Z,7.66
2019-03-02T08:05:25.053Z,7.70
2019-03-02T08:06:25.662Z,7.67
2019-03-02T08:07:25.031Z,7.69
2019-03-02T08:08:25.020Z,7.70
2019-03-02T08:09:25.937Z,7.69
2019-03-02T08:10:24.997Z,7.73
2019-03-02T08:11:24.987Z,7.70
2019-03-02T08:12:26.133Z,7.77
2019-03-02T08:13:24.965Z,7.76
2019-03-02T08:14:24.957Z,7.82
2019-03-02T08:15:25.885Z,7.76
2019-03-02T08:16:24.932Z,7.76
2019-03-02T08:17:24.922Z,7.90
2019-03-02T08:18:26.000Z,7.88
2019-03-02T08:19:24.902Z,7.80
2019-03-02T08:20:26.196Z,7.80
2019-03-02T08:21:24.877Z,7.76
2019-03-02T08:22:24.869Z,7.73
2019-03-02T08:23:24.855Z,7.82
2019-03-02T08:24:24.844Z,7.87
2019-03-02T08:25:24.833Z,7.88
2019-03-02T08:26:24.828Z,7.82
2019-03-02T08:27:24.811Z,7.90
2019-03-02T08:28:24.800Z,7.85
2019-03-02T08:29:24.791Z,7.87
2019-03-02T08:30:24.778Z,7.90
2019-03-02T08:31:24.768Z,7.90
2019-03-02T08:32:26.270Z,7.90
2019-03-02T08:33:24.746Z,7.93
2019-03-02T08:34:24.734Z,8.05
2019-03-02T08:35:24.729Z,7.91
2019-03-02T08:36:24.717Z,7.97
2019-03-02T08:37:26.685Z,8.05
2019-03-02T08:38:24.690Z,8.01
2019-03-02T08:39:24.681Z,8.06
2019-03-02T08:40:24.670Z,8.01
2019-03-02T08:41:24.660Z,8.12
2019-03-02T08:42:24.646Z,8.08
2019-03-02T08:43:24.636Z,8.16
2019-03-02T08:44:24.625Z,8.20
2019-03-02T08:45:27.735Z,8.20
2019-03-02T08:46:24.603Z,8.19
2019-03-02T08:47:24.593Z,8.31
2019-03-02T08:48:24.582Z,8.37
2019-03-02T08:49:24.571Z,8.34
2019-03-02T08:50:24.560Z,8.30
2019-03-02T08:51:24.551Z,8.20
2019-03-02T08:52:24.541Z,8.28
2019-03-02T08:53:24.529Z,8.20
2019-03-02T08:54:24.517Z,8.18
2019-03-02T08:55:24.507Z,8.18
2019-03-02T08:56:24.496Z,8.20
2019-03-02T08:57:24.486Z,8.26
2019-03-02T08:58:24.475Z,8.34
2019-03-02T08:59:24.464Z,8.26
2019-03-02T09:00:24.454Z,8.27
2019-03-02T09:01:24.443Z,8.41
2019-03-02T09:02:24.431Z,8.37
2019-03-02T09:03:24.424Z,8.38
2019-03-02T09:04:24.411Z,8.52
2019-03-02T09:05:42.757Z,8.55
2019-03-02T09:06:24.390Z,8.44
2019-03-02T09:07:24.381Z,8.41
2019-03-02T09:08:24.369Z,8.45
2019-03-02T09:09:24.363Z,8.48
2019-03-02T09:10:24.349Z,8.53
2019-03-02T09:11:24.339Z,8.60
2019-03-02T09:12:24.328Z,8.63
2019-03-02T09:13:24.318Z,8.67
2019-03-02T09:14:24.315Z,8.64
2019-03-02T09:15:26.458Z,8.88
2019-03-02T09:16:24.287Z,8.79
2019-03-02T09:17:24.277Z,8.76
2019-03-02T09:18:24.265Z,8.81
2019-03-02T09:19:24.308Z,8.87
2019-03-02T09:20:24.246Z,8.88
2019-03-02T09:21:24.239Z,8.92
2019-03-02T09:22:25.176Z,8.97
2019-03-02T09:23:24.216Z,9.08
2019-03-02T09:24:24.208Z,9.08
2019-03-02T09:25:27.742Z,9.11
2019-03-02T09:26:24.195Z,9.19
2019-03-02T09:27:24.177Z,9.26
2019-03-02T09:28:24.166Z,9.37
2019-03-02T09:29:24.157Z,9.56
2019-03-02T09:30:24.148Z,9.61
2019-03-02T09:31:26.419Z,9.55
2019-03-02T09:32:24.131Z,9.64
2019-03-02T09:33:24.734Z,9.65
2019-03-02T09:34:24.111Z,9.73
2019-03-02T09:35:24.105Z,9.80
2019-03-02T09:36:24.095Z,9.79
2019-03-02T09:37:24.086Z,9.87
2019-03-02T09:38:24.076Z,9.97
2019-03-02T09:39:24.068Z,9.89
2019-03-02T09:40:24.930Z,9.84
2019-03-02T09:41:25.449Z,9.98
2019-03-02T09:42:24.041Z,10.13
2019-03-02T09:43:24.033Z,10.33
2019-03-02T09:44:24.025Z,10.59
2019-03-02T09:45:24.022Z,10.68
2019-03-02T09:46:24.801Z,10.82
2019-03-02T09:47:24.003Z,11.04
2019-03-02T09:48:24.637Z,11.25
2019-03-02T09:49:23.990Z,11.19
2019-03-02T09:50:23.988Z,11.19
2019-03-02T09:51:23.980Z,11.25
2019-03-02T09:52:23.972Z,11.25
2019-03-02T09:53:23.966Z,11.18
2019-03-02T09:54:23.960Z,10.96
2019-03-02T09:55:23.956Z,10.93
2019-03-02T09:56:23.948Z,10.87
2019-03-02T09:57:23.942Z,10.79
2019-03-02T09:58:25.580Z,10.82
2019-03-02T09:59:23.928Z,10.68
2019-03-02T10:00:25.786Z,10.67
2019-03-02T10:01:23.915Z,10.68
2019-03-02T10:02:23.907Z,10.59
2019-03-02T10:03:26.702Z,10.44
2019-03-02T10:04:23.893Z,10.48
2019-03-02T10:05:26.087Z,10.56
2019-03-02T10:06:25.319Z,10.60
2019-03-02T10:07:25.246Z,10.54
2019-03-02T10:08:23.862Z,10.44
2019-03-02T10:09:24.948Z,10.37
2019-03-02T10:10:25.233Z,10.49
2019-03-02T10:11:24.195Z,10.51
2019-03-02T10:12:23.831Z,10.68
2019-03-02T10:13:23.823Z,10.61
2019-03-02T10:14:24.832Z,10.69
2019-03-02T10:15:23.806Z,10.68
2019-03-02T10:16:23.799Z,10.72
2019-03-02T10:17:23.791Z,10.76
2019-03-02T10:18:23.782Z,10.67
2019-03-02T10:19:25.016Z,10.56
2019-03-02T10:20:23.766Z,10.72
2019-03-02T10:21:23.759Z,10.86
2019-03-02T10:22:24.199Z,10.92
2019-03-02T10:23:23.742Z,11.02
2019-03-02T10:24:23.733Z,11.02
2019-03-02T10:25:26.491Z,10.97
2019-03-02T10:26:23.717Z,10.89
2019-03-02T10:27:23.712Z,10.96
2019-03-02T10:28:23.700Z,11.12
2019-03-02T10:29:23.693Z,11.07
2019-03-02T10:30:25.869Z,11.15
2019-03-02T10:31:23.676Z,11.05
2019-03-02T10:32:23.717Z,11.02
2019-03-02T10:33:23.660Z,10.94
2019-03-02T10:34:23.651Z,10.97
2019-03-02T10:35:23.643Z,10.93
2019-03-02T10:36:25.713Z,11.02
2019-03-02T10:37:23.629Z,10.89
2019-03-02T10:38:23.620Z,10.90
2019-03-02T10:39:23.611Z,10.90
2019-03-02T10:40:23.638Z,11.02
2019-03-02T10:41:23.596Z,11.05
2019-03-02T10:42:23.588Z,11.17
2019-03-02T10:43:23.580Z,11.00
2019-03-02T10:44:23.573Z,11.30
2019-03-02T10:45:23.568Z,11.40
2019-03-02T10:46:23.556Z,11.54
2019-03-02T10:47:23.550Z,11.37
2019-03-02T10:48:23.542Z,11.35
2019-03-02T10:49:23.535Z,11.48
2019-03-02T10:50:24.964Z,11.65
2019-03-02T10:51:23.520Z,11.94
2019-03-02T10:52:23.516Z,11.90
2019-03-02T10:53:24.320Z,11.73
2019-03-02T10:54:23.502Z,11.66
2019-03-02T10:55:23.493Z,11.65
2019-03-02T10:56:24.742Z,11.48
2019-03-02T10:57:23.480Z,11.40
2019-03-02T10:58:23.472Z,11.35
2019-03-02T10:59:23.465Z,11.32
2019-03-02T11:00:25.747Z,11.40
2019-03-02T11:01:23.450Z,11.25
2019-03-02T11:02:23.444Z,11.32
2019-03-02T11:03:23.434Z,11.40
2019-03-02T11:04:23.427Z,11.43
2019-03-02T11:05:23.436Z,11.40
2019-03-02T11:06:23.419Z,11.30
2019-03-02T11:07:23.403Z,11.18
2019-03-02T11:08:25.423Z,11.11
2019-03-02T11:09:23.389Z,11.18
2019-03-02T11:10:23.380Z,11.18
2019-03-02T11:11:25.755Z,11.41
2019-03-02T11:12:23.365Z,11.48
2019-03-02T11:13:23.357Z,11.44
2019-03-02T11:14:23.348Z,11.33
2019-03-02T11:15:23.340Z,11.41
2019-03-02T11:16:23.331Z,11.45
2019-03-02T11:17:24.092Z,11.51
2019-03-02T11:18:23.320Z,11.43
2019-03-02T11:19:23.308Z,11.60
2019-03-02T11:20:24.436Z,11.75
2019-03-02T11:21:23.293Z,12.07
2019-03-02T11:22:23.285Z,12.47
2019-03-02T11:23:23.311Z,12.64
2019-03-02T11:24:23.273Z,12.86
2019-03-02T11:25:23.267Z,12.97
2019-03-02T11:26:23.261Z,13.20
2019-03-02T11:27:23.256Z,13.19
2019-03-02T11:28:23.251Z,13.20
2019-03-02T11:29:23.245Z,13.25
2019-03-02T11:30:23.238Z,13.12
2019-03-02T11:31:23.236Z,13.04
2019-03-02T11:32:23.228Z,13.04
2019-03-02T11:33:23.236Z,12.65
2019-03-02T11:34:23.216Z,12.17
2019-03-02T11:35:23.211Z,12.17
2019-03-02T11:36:23.832Z,12.18
2019-03-02T11:37:25.639Z,12.20
2019-03-02T11:38:23.193Z,12.22
2019-03-02T11:39:23.184Z,12.25
2019-03-02T11:40:25.801Z,12.42
2019-03-02T11:41:23.172Z,12.46
2019-03-02T11:42:23.165Z,12.40
2019-03-02T11:43:23.158Z,12.04
2019-03-02T11:44:23.152Z,12.10
2019-03-02T11:45:23.145Z,12.09
2019-03-02T11:46:23.137Z,11.94
2019-03-02T11:47:23.131Z,12.04
2019-03-02T11:48:23.124Z,12.10
2019-03-02T11:49:30.444Z,12.07
2019-03-02T11:50:23.110Z,11.88
2019-03-02T11:51:24.062Z,12.00
2019-03-02T11:52:23.097Z,11.88
2019-03-02T11:53:24.095Z,11.87
2019-03-02T11:54:25.161Z,11.88
2019-03-02T11:55:23.074Z,11.88
2019-03-02T11:56:26.978Z,11.91
2019-03-02T11:57:23.060Z,11.97
2019-03-02T11:58:23.051Z,11.84
2019-03-02T11:59:23.043Z,11.65
2019-03-02T12:00:23.036Z,11.62
2019-03-02T12:01:23.028Z,11.66
2019-03-02T12:02:23.860Z,11.55
2019-03-02T12:03:23.012Z,11.57
2019-03-02T12:04:23.005Z,11.62
2019-03-02T12:05:25.033Z,11.47
2019-03-02T12:06:22.988Z,11.41
2019-03-02T12:07:22.980Z,11.27
2019-03-02T12:08:23.506Z,11.17
2019-03-02T12:09:22.965Z,11.26
2019-03-02T12:10:22.957Z,11.35
2019-03-02T12:11:22.949Z,11.37
2019-03-02T12:12:22.944Z,11.57
2019-03-02T12:13:22.933Z,11.57
2019-03-02T12:14:22.923Z,11.63
2019-03-02T12:15:24.840Z,11.63
2019-03-02T12:16:26.376Z,11.65
2019-03-02T12:17:22.899Z,11.66
2019-03-02T12:18:22.891Z,11.75
2019-03-02T12:19:26.229Z,11.86
2019-03-02T12:20:22.875Z,11.88
2019-03-02T12:21:22.867Z,11.91
2019-03-02T12:22:22.858Z,12.10
2019-03-02T12:23:24.588Z,12.12
2019-03-02T12:24:23.296Z,12.13
2019-03-02T12:25:22.835Z,12.09
2019-03-02T12:26:22.826Z,12.04
2019-03-02T12:27:23.719Z,12.02
2019-03-02T12:28:22.811Z,12.12
2019-03-02T12:29:22.806Z,11.94
2019-03-02T12:30:26.190Z,11.84
2019-03-02T12:31:22.788Z,11.73
2019-03-02T12:32:22.780Z,11.83
2019-03-02T12:33:22.772Z,11.84
2019-03-02T12:34:22.764Z,11.97
2019-03-02T12:35:22.756Z,12.03
2019-03-02T12:36:22.748Z,11.86
2019-03-02T12:37:22.741Z,11.73
2019-03-02T12:38:22.733Z,11.77
2019-03-02T12:39:23.869Z,11.87
2019-03-02T12:40:22.717Z,11.91
2019-03-02T12:41:22.709Z,11.97
2019-03-02T12:42:22.701Z,12.02
2019-03-02T12:43:22.693Z,11.95
2019-03-02T12:44:22.685Z,12.03
2019-03-02T12:45:22.678Z,11.90
2019-03-02T12:46:22.672Z,11.99
2019-03-02T12:47:22.662Z,11.77
2019-03-02T12:48:22.654Z,11.68
2019-03-02T12:49:22.648Z,11.59
2019-03-02T12:50:23.190Z,11.51
2019-03-02T12:51:22.630Z,11.41
2019-03-02T12:52:22.621Z,11.43
2019-03-02T12:53:24.545Z,11.36
2019-03-02T12:54:24.739Z,11.33
2019-03-02T12:55:22.595Z,11.22
2019-03-02T12:56:22.586Z,11.14
2019-03-02T12:57:22.580Z,11.15
2019-03-02T12:58:23.174Z,11.14
2019-03-02T12:59:22.564Z,11.07
2019-03-02T13:00:22.552Z,10.97
2019-03-02T13:01:22.545Z,10.97
2019-03-02T13:02:22.533Z,10.87
2019-03-02T13:03:22.525Z,10.76
2019-03-02T13:04:22.518Z,10.75
2019-03-02T13:05:22.812Z,10.82
2019-03-02T13:06:22.497Z,10.87
2019-03-02T13:07:22.488Z,10.84
2019-03-02T13:08:22.854Z,10.86
2019-03-02T13:09:22.470Z,10.79
2019-03-02T13:10:22.460Z,10.72
2019-03-02T13:11:25.721Z,10.75